createdAt,value
2019-04-27T00:00:00.087Z,4.85
2019-04-27T00:01:36.681Z,4.70
2019-04-27T00:02:47.562Z,5.53
2019-04-27T00:04:11.659Z,5.45
2019-04-27T00:05:51.287Z,4.60
2019-04-27T00:06:58.789Z,5.17
2019-04-27T00:08:15.383Z,4.80
2019-04-27T00:09:50.258Z,5.10
2019-04-27T00:11:05.143Z,5.15
2019-04-27T00:12:10.122Z,4.83
2019-04-27T00:13:15.137Z,5.33
2019-04-27T00:14:19.043Z,4.47
2019-04-27T00:15:38.431Z,5.33
2019-04-27T00:17:21.049Z,5.03
2019-04-27T00:18:45.454Z,5.10
2019-04-27T00:20:07.191Z,5.78
2019-04-27T00:21:23.769Z,5.10
2019-04-27T00:22:33.473Z,5.00
2019-04-27T00:23:37.250Z,4.83
2019-04-27T00:24:40.360Z,5.00
2019-04-27T00:25:43.843Z,5.08
2019-04-27T00:26:47.082Z,4.70
2019-04-27T00:27:50.145Z,4.97
2019-04-27T00:28:53.841Z,4.92
2019-04-27T00:29:57.288Z,4.70
2019-04-27T00:31:00.699Z,4.80
2019-04-27T00:32:04.379Z,4.60
2019-04-27T00:33:07.716Z,4.97
2019-04-27T00:34:11.095Z,4.78
2019-04-27T00:35:18.439Z,4.75
2019-04-27T00:36:28.764Z,4.80
2019-04-27T00:37:42.716Z,5.78
2019-04-27T00:38:55.464Z,4.55
2019-04-27T00:40:03.492Z,4.65
2019-04-27T00:41:09.947Z,4.75
2019-04-27T00:42:13.459Z,4.62
2019-04-27T00:43:17.211Z,4.85
2019-04-27T00:44:20.860Z,4.62
2019-04-27T00:45:24.526Z,4.90
2019-04-27T00:46:28.215Z,5.10
2019-04-27T00:47:32.710Z,4.75
2019-04-27T00:48:36.844Z,5.12
2019-04-27T00:49:39.882Z,4.55
2019-04-27T00:50:43.943Z,4.80
2019-04-27T00:51:47.318Z,4.47
2019-04-27T00:52:50.641Z,5.33
2019-04-27T00:53:55.070Z,4.50
2019-04-27T00:54:59.129Z,4.70
2019-04-27T00:56:18.935Z,4.62
2019-04-27T00:57:44.476Z,4.75
2019-04-27T00:59:03.520Z,5.05
2019-04-27T01:00:25.310Z,4.28
2019-04-27T01:01:33.312Z,4.55
2019-04-27T01:02:58.617Z,4.40
2019-04-27T01:04:09.379Z,4.40
2019-04-27T01:05:23.508Z,4.60
2019-04-27T01:06:27.564Z,4.55
2019-04-27T01:07:30.646Z,4.80
2019-04-27T01:08:34.318Z,4.70
2019-04-27T01:09:38.023Z,4.22
2019-04-27T01:10:41.401Z,4.50
2019-04-27T01:11:44.483Z,4.72
2019-04-27T01:12:47.762Z,4.08
2019-04-27T01:13:50.839Z,4.40
2019-04-27T01:14:54.502Z,4.45
2019-04-27T01:15:58.063Z,4.00
2019-04-27T01:17:01.935Z,3.72
2019-04-27T01:18:12.187Z,3.90
2019-04-27T01:19:10.486Z,3.70
2019-04-27T01:20:13.808Z,3.65
2019-04-27T01:21:19.319Z,3.55
2019-04-27T01:22:22.738Z,3.30
2019-04-27T01:23:26.107Z,3.27
2019-04-27T01:24:30.377Z,3.15
2019-04-27T01:25:45.262Z,3.00
2019-04-27T01:26:58.315Z,2.92
2019-04-27T01:31:09.142Z,3.20
2019-04-27T01:50:51.175Z,2.30
2019-04-27T01:56:45.302Z,2.40
2019-04-27T01:58:56.509Z,2.70
2019-04-27T02:10:49.606Z,2.40
2019-04-27T02:12:43.957Z,2.37
2019-04-27T02:22:42.421Z,2.20
2019-04-27T02:35:09.162Z,2.30
2019-04-27T02:43:29.389Z,1.98
2019-04-27T02:45:34.970Z,2.08
2019-04-27T03:12:03.911Z,2.27
2019-04-27T03:27:00.605Z,2.37
2019-04-27T03:30:36.389Z,2.35
2019-04-27T03:35:37.361Z,2.17
2019-04-27T03:48:20.402Z,2.08
2019-04-27T03:55:43.043Z,2.05
2019-04-27T04:06:42.779Z,2.30
2019-04-27T04:08:55.042Z,1.98
2019-04-27T04:10:20.260Z,1.90
2019-04-27T04:11:49.341Z,2.00
2019-04-27T04:14:11.649Z,1.72
2019-04-27T04:18:10.803Z,2.05
2019-04-27T04:26:22.591Z,2.02
2019-04-27T04:32:49.814Z,1.82
2019-04-27T04:45:24.242Z,2.15
2019-04-27T04:51:06.051Z,2.00
2019-04-27T04:52:34.524Z,2.00
2019-04-27T04:53:46.494Z,1.82
2019-04-27T04:55:20.629Z,2.27
2019-04-27T05:02:15.442Z,2.15
2019-04-27T05:59:15.570Z,3.42
2019-04-27T06:03:29.438Z,4.03
2019-04-27T06:05:31.586Z,3.45
2019-04-27T06:45:21.228Z,4.05
2019-04-27T07:26:19.099Z,4.40
2019-04-27T07:39:21.283Z,3.95
2019-04-27T07:41:10.823Z,4.60
2019-04-27T08:05:20.019Z,5.90
2019-04-27T10:17:27.383Z,2.02
2019-04-27T10:18:30.494Z,2.17
2019-04-27T10:19:33.851Z,1.82
2019-04-27T10:20:40.499Z,1.80
2019-04-27T10:21:42.735Z,1.92
2019-04-27T10:22:46.477Z,1.98
2019-04-27T10:23:49.521Z,2.15
2019-04-27T10:24:52.822Z,2.17
2019-04-27T10:25:56.366Z,1.98
2019-04-27T10:26:59.647Z,1.90
2019-04-27T10:28:02.688Z,2.12
2019-04-27T10:29:06.325Z,2.45
2019-04-27T10:30:09.740Z,1.55
2019-04-27T10:31:13.278Z,2.40
2019-04-27T10:32:16.579Z,1.90
2019-04-27T10:33:20.170Z,2.90
2019-04-27T10:34:23.527Z,1.82
2019-04-27T10:35:27.114Z,1.92
2019-04-27T10:36:39.492Z,2.45
2019-04-27T10:37:42.770Z,2.10
2019-04-27T10:38:46.337Z,1.67
2019-04-27T10:39:49.894Z,1.55
2019-04-27T10:40:53.463Z,2.22
2019-04-27T10:41:56.497Z,1.62
2019-04-27T10:42:59.856Z,2.05
2019-04-27T10:44:03.122Z,1.30
2019-04-27T10:45:08.029Z,1.85
2019-04-27T10:46:11.278Z,2.27
2019-04-27T10:47:15.836Z,2.05
2019-04-27T10:48:19.471Z,2.12
2019-04-27T10:49:23.128Z,1.77
2019-04-27T10:50:26.690Z,2.02
2019-04-27T10:51:30.267Z,1.98
2019-04-27T10:52:34.110Z,1.67
2019-04-27T10:53:39.055Z,2.25
2019-04-27T10:54:42.435Z,1.90
2019-04-27T10:55:46.408Z,1.60
2019-04-27T10:56:50.069Z,2.47
2019-04-27T10:57:53.348Z,2.05
2019-04-27T10:58:56.929Z,2.12
2019-04-27T11:00:00.203Z,1.90
2019-04-27T11:01:05.642Z,2.42
2019-04-27T11:02:08.910Z,2.20
2019-04-27T11:03:14.483Z,2.87
2019-04-27T11:04:43.292Z,2.15
2019-04-27T11:06:08.691Z,2.00
2019-04-27T11:07:15.840Z,2.20
2019-04-27T11:08:19.603Z,2.58
2019-04-27T11:09:23.062Z,2.55
2019-04-27T11:10:26.660Z,2.22
2019-04-27T11:11:29.941Z,2.37
2019-04-27T11:12:33.555Z,2.00
2019-04-27T11:13:38.303Z,2.67
2019-04-27T11:14:41.964Z,2.75
2019-04-27T11:15:46.112Z,2.52
2019-04-27T11:16:49.883Z,2.30
2019-04-27T11:17:53.518Z,2.27
2019-04-27T11:18:58.764Z,2.70
2019-04-27T11:20:02.864Z,2.42
2019-04-27T11:21:06.215Z,2.30
2019-04-27T11:22:09.520Z,2.55
2019-04-27T11:23:13.103Z,2.25
2019-04-27T11:24:16.680Z,2.45
2019-04-27T11:25:20.242Z,2.33
2019-04-27T11:26:23.525Z,2.00
2019-04-27T11:27:26.874Z,2.55
2019-04-27T11:28:30.759Z,2.70
2019-04-27T11:29:35.943Z,2.30
2019-04-27T11:30:39.435Z,2.80
2019-04-27T11:31:42.726Z,2.98
2019-04-27T11:32:46.308Z,2.65
2019-04-27T11:33:49.426Z,2.22
2019-04-27T11:35:09.006Z,2.00
2019-04-27T11:36:29.742Z,2.50
2019-04-27T11:37:37.086Z,2.40
2019-04-27T11:38:39.086Z,2.02
2019-04-27T11:39:42.678Z,2.70
2019-04-27T11:40:46.609Z,2.52
2019-04-27T11:41:50.356Z,1.87
2019-04-27T11:42:53.400Z,2.27
2019-04-27T11:43:56.709Z,2.20
2019-04-27T11:45:00.331Z,2.40
2019-04-27T11:46:03.624Z,2.47
2019-04-27T11:47:06.911Z,2.37
2019-04-27T11:48:10.191Z,2.15
2019-04-27T11:49:13.482Z,2.00
2019-04-27T11:50:17.027Z,1.90
2019-04-27T11:51:23.619Z,1.75
2019-04-27T11:52:27.155Z,1.02
2019-04-27T11:53:30.731Z,1.27
2019-04-27T11:54:35.619Z,1.22
2019-04-27T11:55:40.955Z,1.10
2019-04-27T11:56:44.502Z,1.20
2019-04-27T11:57:47.777Z,1.30
2019-04-27T11:58:51.063Z,1.55
2019-04-27T11:59:56.294Z,1.20
2019-04-27T12:00:59.760Z,1.40
2019-04-27T12:02:03.404Z,1.37
2019-04-27T12:03:06.808Z,1.62
2019-04-27T12:04:10.474Z,1.32
2019-04-27T12:05:16.085Z,1.40
2019-04-27T12:06:19.745Z,1.20
2019-04-27T12:07:23.050Z,1.47
2019-04-27T12:08:26.686Z,1.22
2019-04-27T12:09:30.254Z,1.55
2019-04-27T12:10:33.559Z,1.50
2019-04-27T12:11:37.113Z,1.30
2019-04-27T12:12:40.466Z,1.30
2019-04-27T12:13:45.948Z,1.52
2019-04-27T12:14:49.343Z,1.40
2019-04-27T12:15:53.214Z,1.40
2019-04-27T12:16:56.485Z,1.52
2019-04-27T12:17:59.526Z,1.42
2019-04-27T12:19:03.087Z,1.30
2019-04-27T12:20:06.723Z,1.40
2019-04-27T12:21:10.078Z,2.10
2019-04-27T12:22:13.109Z,1.45
2019-04-27T12:23:16.705Z,1.47
2019-04-27T12:24:20.270Z,1.95
2019-04-27T12:25:23.586Z,1.57
2019-04-27T12:26:36.297Z,2.25
2019-04-27T12:27:58.605Z,1.62
2019-04-27T12:29:03.490Z,1.60
2019-04-27T12:30:18.552Z,1.82
2019-04-27T12:31:29.774Z,2.00
2019-04-27T12:32:33.059Z,1.85
2019-04-27T12:33:36.154Z,1.70
2019-04-27T12:34:39.431Z,2.25
2019-04-27T12:35:42.719Z,2.02
2019-04-27T12:36:46.298Z,1.92
2019-04-27T12:37:49.577Z,1.82
2019-04-27T12:38:53.199Z,2.25
2019-04-27T12:39:57.611Z,1.65
2019-04-27T12:41:01.043Z,1.55
2019-04-27T12:42:06.040Z,1.80
2019-04-27T12:43:09.997Z,2.00
2019-04-27T12:44:13.309Z,2.02
2019-04-27T12:45:18.276Z,1.60
2019-04-27T12:46:24.678Z,2.15
2019-04-27T12:47:28.306Z,1.85
2019-04-27T12:48:31.570Z,1.57
2019-04-27T12:49:36.249Z,1.52
2019-04-27T12:50:39.411Z,1.90
2019-04-27T12:51:42.692Z,1.80
2019-04-27T12:52:48.275Z,1.90
2019-04-27T12:54:06.017Z,1.80
2019-04-27T12:55:46.518Z,1.57
2019-04-27T12:57:20.680Z,1.60
2019-04-27T12:58:37.304Z,1.60
2019-04-27T13:00:01.238Z,1.77
2019-04-27T13:01:07.281Z,1.80
2019-04-27T13:02:10.002Z,1.47
2019-04-27T13:03:13.558Z,1.20
2019-04-27T13:04:17.175Z,1.90
2019-04-27T13:05:20.341Z,1.70
2019-04-27T13:06:23.879Z,1.40
2019-04-27T13:07:27.136Z,1.72
2019-04-27T13:08:30.157Z,1.82
2019-04-27T13:09:35.967Z,1.80
2019-04-27T13:10:39.301Z,1.80
2019-04-27T13:11:43.144Z,1.60
2019-04-27T13:12:46.709Z,1.72
2019-04-27T13:13:50.534Z,1.55
2019-04-27T13:14:54.127Z,1.90
2019-04-27T13:15:57.167Z,2.12
2019-04-27T13:17:00.985Z,2.08
2019-04-27T13:18:05.595Z,2.08
2019-04-27T13:19:08.942Z,1.65
2019-04-27T13:20:12.506Z,2.47
2019-04-27T13:21:18.035Z,1.67
2019-04-27T13:22:20.896Z,1.52
2019-04-27T13:23:24.496Z,1.87
2019-04-27T13:24:28.193Z,1.45
2019-04-27T13:25:31.383Z,2.00
2019-04-27T13:26:36.202Z,1.50
2019-04-27T13:27:39.731Z,1.85
2019-04-27T13:28:43.036Z,1.95
2019-04-27T13:29:46.779Z,1.65
2019-04-27T13:30:51.033Z,1.90
2019-04-27T13:31:55.751Z,2.02
2019-04-27T13:32:59.402Z,2.00
2019-04-27T13:34:02.973Z,1.92
2019-04-27T13:35:06.338Z,2.10
2019-04-27T13:36:09.698Z,1.52
2019-04-27T13:37:36.976Z,1.70
2019-04-27T13:38:40.540Z,1.92
2019-04-27T13:39:44.310Z,2.00
2019-04-27T13:41:05.845Z,2.30
2019-04-27T13:42:09.893Z,1.87
2019-04-27T13:43:29.969Z,1.98
2019-04-27T13:44:33.260Z,1.77
2019-04-27T13:45:51.109Z,2.17
2019-04-27T13:47:19.627Z,2.10
2019-04-27T13:48:56.811Z,1.90
2019-04-27T13:50:14.642Z,2.10
2019-04-27T13:51:33.132Z,1.62
2019-04-27T13:52:36.989Z,1.85
2019-04-27T13:53:40.292Z,1.85
2019-04-27T13:54:43.570Z,2.37
2019-04-27T13:55:48.526Z,1.60
2019-04-27T13:56:51.910Z,1.85
2019-04-27T13:57:55.195Z,2.22
2019-04-27T13:58:58.754Z,1.80
2019-04-27T14:00:02.033Z,1.77
2019-04-27T14:01:05.603Z,1.80
2019-04-27T14:02:09.176Z,2.05
2019-04-27T14:03:14.362Z,1.55
2019-04-27T14:04:17.491Z,1.40
2019-04-27T14:05:21.399Z,1.50
2019-04-27T14:06:25.017Z,1.47
2019-04-27T14:07:28.351Z,1.40
2019-04-27T14:08:31.964Z,1.30
2019-04-27T14:09:35.237Z,1.62
2019-04-27T14:10:38.862Z,1.92
2019-04-27T14:11:42.419Z,1.92
2019-04-27T14:12:45.806Z,1.50
2019-04-27T14:13:49.099Z,1.80
2019-04-27T14:14:52.374Z,1.87
2019-04-27T14:15:55.401Z,1.92
2019-04-27T14:16:58.442Z,1.50
2019-04-27T14:18:02.012Z,1.80
2019-04-27T14:19:05.538Z,2.02
2019-04-27T14:20:09.696Z,1.45
2019-04-27T14:21:13.334Z,1.67
2019-04-27T14:22:18.107Z,1.50
2019-04-27T14:23:23.629Z,2.25
2019-04-27T14:24:39.478Z,1.90
2019-04-27T14:25:42.744Z,2.37
2019-04-27T14:26:46.309Z,1.95
2019-04-27T14:27:49.870Z,2.00
2019-04-27T14:28:53.187Z,1.50
2019-04-27T14:29:57.681Z,2.45
2019-04-27T14:31:01.764Z,2.17
2019-04-27T14:32:05.335Z,2.35
2019-04-27T14:33:08.652Z,2.30
2019-04-27T14:34:11.981Z,2.20
2019-04-27T14:35:15.542Z,1.75
2019-04-27T14:36:18.811Z,2.12
2019-04-27T14:37:22.370Z,1.80
2019-04-27T14:38:25.981Z,1.85
2019-04-27T14:39:29.615Z,2.08
2019-04-27T14:40:32.982Z,2.10
2019-04-27T14:41:36.606Z,1.80
2019-04-27T14:42:40.199Z,2.25
2019-04-27T14:43:43.230Z,1.90
2019-04-27T14:44:46.271Z,2.08
2019-04-27T14:45:49.837Z,2.52
2019-04-27T14:46:53.424Z,1.85
2019-04-27T14:47:58.210Z,1.67
2019-04-27T14:49:02.015Z,1.98
2019-04-27T14:50:05.540Z,1.70
2019-04-27T14:51:08.916Z,1.50
2019-04-27T14:52:12.535Z,1.82
2019-04-27T14:53:15.910Z,1.80
2019-04-27T14:54:19.816Z,1.65
2019-04-27T14:55:23.245Z,1.65
2019-04-27T14:56:29.251Z,1.57
2019-04-27T14:57:33.183Z,1.70
2019-04-27T14:58:36.831Z,1.65
2019-04-27T14:59:40.436Z,1.40
2019-04-27T15:00:43.462Z,1.50
2019-04-27T15:01:48.662Z,1.50
2019-04-27T15:02:51.908Z,1.55
2019-04-27T15:03:55.519Z,1.72
2019-04-27T15:04:58.816Z,1.92
2019-04-27T15:06:02.676Z,1.72
2019-04-27T15:07:06.526Z,1.72
2019-04-27T15:08:10.087Z,1.70
2019-04-27T15:09:17.155Z,1.65
2019-04-27T15:10:18.367Z,1.65
2019-04-27T15:11:24.584Z,2.22
2019-04-27T15:12:30.629Z,1.60
2019-04-27T15:13:37.854Z,1.57
2019-04-27T15:14:39.099Z,1.92
2019-04-27T15:15:42.666Z,1.87
2019-04-27T15:16:47.910Z,2.67
2019-04-27T15:17:51.248Z,1.60
2019-04-27T15:18:59.986Z,1.92
2019-04-27T15:20:07.914Z,1.75
2019-04-27T15:21:11.586Z,1.92
2019-04-27T15:22:29.914Z,1.75
2019-04-27T15:23:33.050Z,1.85
2019-04-27T15:24:36.771Z,1.62
2019-04-27T15:25:45.606Z,2.05
2019-04-27T15:26:45.759Z,2.72
2019-04-27T15:27:53.871Z,2.10
2019-04-27T15:28:59.759Z,2.00
2019-04-27T15:30:08.549Z,2.10
2019-04-27T15:31:27.120Z,2.35
2019-04-27T15:32:52.805Z,2.15
2019-04-27T15:34:11.134Z,2.20
2019-04-27T15:35:28.124Z,2.12
2019-04-27T15:36:52.830Z,2.08
2019-04-27T15:38:05.044Z,2.10
2019-04-27T15:39:10.243Z,2.10
2019-04-27T15:40:32.539Z,1.65
2019-04-27T15:41:41.170Z,1.70
2019-04-27T15:43:03.783Z,1.30
2019-04-27T15:44:09.370Z,1.87
2019-04-27T15:45:15.986Z,1.55
2019-04-27T15:46:18.544Z,1.30
2019-04-27T15:47:22.600Z,1.30
2019-04-27T15:48:30.688Z,1.95
2019-04-27T15:49:31.429Z,1.20
2019-04-27T15:50:34.820Z,1.40
2019-04-27T15:51:38.371Z,1.47
2019-04-27T15:52:41.751Z,1.90
2019-04-27T15:53:45.934Z,1.65
2019-04-27T15:54:49.877Z,1.62
2019-04-27T15:55:53.722Z,1.50
2019-04-27T15:56:58.437Z,1.40
2019-04-27T15:58:01.786Z,1.60
2019-04-27T15:59:04.842Z,1.60
2019-04-27T16:00:17.105Z,1.95
2019-04-27T16:01:15.363Z,1.85
2019-04-27T16:02:18.653Z,1.92
2019-04-27T16:03:22.686Z,1.57
2019-04-27T16:04:26.931Z,1.67
2019-04-27T16:05:33.359Z,1.75
2019-04-27T16:06:35.774Z,1.80
2019-04-27T16:07:38.918Z,1.87
2019-04-27T16:08:45.250Z,1.60
2019-04-27T16:09:48.671Z,2.05
2019-04-27T16:10:52.297Z,1.77
2019-04-27T16:12:03.760Z,2.05
2019-04-27T16:13:06.912Z,1.80
2019-04-27T16:14:07.713Z,2.05
2019-04-27T16:15:13.458Z,2.33
2019-04-27T16:16:16.284Z,2.50
2019-04-27T16:17:19.867Z,2.80
2019-04-27T16:18:24.531Z,2.37
2019-04-27T16:19:28.736Z,2.17
2019-04-27T16:20:33.964Z,1.62
2019-04-27T16:21:41.619Z,2.02
2019-04-27T16:22:43.051Z,1.87
2019-04-27T16:23:48.072Z,1.90
2019-04-27T16:24:53.557Z,2.25
2019-04-27T16:25:58.172Z,2.27
2019-04-27T16:27:01.863Z,1.80
2019-04-27T16:28:09.705Z,1.60
2019-04-27T16:29:13.677Z,1.55
2019-04-27T16:30:18.735Z,1.85
2019-04-27T16:31:29.180Z,1.37
2019-04-27T16:32:30.222Z,1.40
2019-04-27T16:33:33.827Z,1.95
2019-04-27T16:34:41.037Z,1.60
2019-04-27T16:35:42.104Z,1.60
2019-04-27T16:36:45.200Z,1.90
2019-04-27T16:38:26.591Z,1.98
2019-04-27T16:39:28.672Z,2.02
2019-04-27T16:40:32.042Z,1.95
2019-04-27T16:41:37.307Z,1.90
2019-04-27T16:42:40.770Z,1.62
2019-04-27T16:43:45.720Z,1.47
2019-04-27T16:44:53.028Z,1.92
2019-04-27T16:45:57.874Z,1.75
2019-04-27T16:47:00.527Z,1.60
2019-04-27T16:48:04.208Z,1.80
2019-04-27T16:49:13.647Z,1.42
2019-04-27T16:50:12.514Z,1.30
2019-04-27T16:51:18.172Z,1.12
2019-04-27T16:52:22.135Z,1.50
2019-04-27T16:53:25.542Z,1.10
2019-04-27T16:54:28.892Z,1.37
2019-04-27T16:55:34.334Z,1.40
2019-04-27T16:56:38.142Z,1.42
2019-04-27T16:57:41.782Z,1.17
2019-04-27T16:58:49.031Z,1.32
2019-04-27T16:59:54.866Z,1.90
2019-04-27T17:01:04.167Z,1.22
2019-04-27T17:02:01.829Z,1.20
2019-04-27T17:03:06.749Z,1.57
2019-04-27T17:04:14.385Z,1.07
2019-04-27T17:05:15.935Z,1.75
2019-04-27T17:06:21.467Z,1.30
2019-04-27T17:07:24.337Z,1.45
2019-04-27T17:08:29.100Z,1.25
2019-04-27T17:09:36.424Z,1.52
2019-04-27T17:10:38.986Z,1.60
2019-04-27T17:11:43.762Z,1.70
2019-04-27T17:12:48.636Z,1.47
2019-04-27T17:13:58.883Z,1.60
2019-04-27T17:15:33.078Z,1.77
2019-04-27T17:16:58.233Z,1.52
2019-04-27T17:18:19.974Z,1.42
2019-04-27T17:19:28.897Z,1.40
2019-04-27T17:20:31.782Z,1.30
2019-04-27T17:21:39.891Z,2.00
2019-04-27T17:22:40.342Z,1.62
2019-04-27T17:23:43.703Z,1.87
2019-04-27T17:24:49.159Z,1.75
2019-04-27T17:25:52.979Z,1.90
2019-04-27T17:26:56.418Z,1.70
2019-04-27T17:28:05.224Z,1.35
2019-04-27T17:29:16.474Z,1.60
2019-04-27T17:30:18.795Z,1.95
2019-04-27T17:31:23.939Z,1.90
2019-04-27T17:32:55.532Z,1.75
2019-04-27T17:34:00.930Z,2.10
2019-04-27T17:35:05.285Z,1.52
2019-04-27T17:36:12.118Z,1.50
2019-04-27T17:37:14.423Z,2.33
2019-04-27T17:38:18.199Z,2.25
2019-04-27T17:39:23.386Z,2.10
2019-04-27T17:40:29.966Z,2.00
2019-04-27T17:41:31.890Z,2.00
2019-04-27T17:42:35.195Z,2.27
2019-04-27T17:43:41.538Z,2.10
2019-04-27T17:44:43.726Z,1.90
2019-04-27T17:45:48.620Z,2.15
2019-04-27T17:46:52.576Z,2.08
2019-04-27T17:48:00.349Z,1.82
2019-04-27T17:49:01.552Z,1.80
2019-04-27T17:50:05.352Z,1.80
2019-04-27T17:51:09.014Z,2.17
2019-04-27T17:52:13.168Z,2.25
2019-04-27T17:53:18.708Z,1.92
2019-04-27T17:54:22.714Z,1.95
2019-04-27T17:55:27.643Z,1.35
2019-04-27T17:56:35.828Z,2.20
2019-04-27T17:57:38.799Z,1.70
2019-04-27T17:58:42.379Z,1.85
2019-04-27T17:59:51.309Z,2.22
2019-04-27T18:00:50.655Z,1.95
2019-04-27T18:01:58.236Z,2.30
2019-04-27T18:02:58.870Z,2.33
2019-04-27T18:04:03.022Z,3.02
2019-04-27T18:05:09.558Z,2.67
2019-04-27T18:06:11.528Z,2.70
2019-04-27T18:07:15.080Z,3.08
2019-04-27T18:08:24.615Z,2.67
2019-04-27T18:09:23.826Z,2.27
2019-04-27T18:10:28.173Z,2.72
2019-04-27T18:11:32.843Z,2.47
2019-04-27T18:12:36.604Z,2.83
2019-04-27T18:13:42.123Z,2.42
2019-04-27T18:14:45.806Z,2.65
2019-04-27T18:15:50.667Z,2.25
2019-04-27T18:16:54.675Z,2.25
2019-04-27T18:18:00.102Z,2.10
2019-04-27T18:19:31.409Z,2.15
2019-04-27T18:20:34.699Z,2.25
2019-04-27T18:21:41.167Z,2.35
2019-04-27T18:22:49.050Z,2.17
2019-04-27T18:23:55.320Z,2.58
2019-04-27T18:25:06.122Z,2.02
2019-04-27T18:26:17.444Z,2.62
2019-04-27T18:27:49.587Z,2.33
2019-04-27T18:28:53.860Z,2.10
2019-04-27T18:30:10.480Z,2.10
2019-04-27T18:31:17.715Z,2.20
2019-04-27T18:32:23.470Z,2.22
2019-04-27T18:33:28.331Z,2.25
2019-04-27T18:34:31.698Z,2.30
2019-04-27T18:35:35.022Z,2.62
2019-04-27T18:36:43.808Z,3.42
2019-04-27T18:37:44.102Z,2.52
2019-04-27T18:38:47.425Z,2.85
2019-04-27T18:39:54.799Z,2.12
2019-04-27T18:40:56.243Z,2.42
2019-04-27T18:41:59.571Z,2.37
2019-04-27T18:43:06.484Z,2.60
2019-04-27T18:44:08.785Z,2.47
2019-04-27T18:45:14.299Z,3.58
2019-04-27T18:46:22.011Z,2.83
2019-04-27T18:47:22.585Z,2.83
2019-04-27T18:48:40.117Z,2.98
2019-04-27T18:50:11.021Z,2.75
2019-04-27T18:51:40.781Z,2.58
2019-04-27T18:52:52.971Z,3.10
2019-04-27T18:53:59.689Z,2.75
2019-04-27T18:55:01.404Z,2.30
2019-04-27T18:56:05.516Z,2.72
2019-04-27T18:57:10.918Z,2.05
2019-04-27T18:58:14.053Z,2.27
2019-04-27T18:59:18.709Z,2.33
2019-04-27T19:00:22.174Z,2.55
2019-04-27T19:01:25.450Z,2.50
2019-04-27T19:02:28.868Z,2.00
2019-04-27T19:03:32.368Z,2.30
2019-04-27T19:04:35.951Z,2.42
2019-04-27T19:05:40.518Z,2.52
2019-04-27T19:06:44.222Z,2.15
2019-04-27T19:07:48.426Z,2.25
2019-04-27T19:08:51.867Z,2.25
2019-04-27T19:09:55.143Z,2.72
2019-04-27T19:11:00.415Z,3.00
2019-04-27T19:12:03.857Z,2.35
2019-04-27T19:13:08.818Z,2.40
2019-04-27T19:14:12.502Z,2.12
2019-04-27T19:15:16.038Z,2.55
2019-04-27T19:16:22.156Z,2.67
2019-04-27T19:17:24.651Z,2.60
2019-04-27T19:18:27.694Z,2.67
2019-04-27T19:19:31.006Z,2.27
2019-04-27T19:20:34.303Z,1.90
2019-04-27T19:21:39.284Z,2.50
2019-04-27T19:22:43.289Z,2.75
2019-04-27T19:23:46.907Z,2.37
2019-04-27T19:24:50.485Z,2.62
2019-04-27T19:26:28.937Z,2.02
2019-04-27T19:27:51.430Z,2.55
2019-04-27T19:29:08.463Z,2.20
2019-04-27T19:30:22.697Z,2.70
2019-04-27T19:31:29.167Z,2.47
2019-04-27T19:32:32.799Z,2.52
2019-04-27T19:33:36.099Z,2.60
2019-04-27T19:34:39.451Z,2.35
2019-04-27T19:35:43.011Z,2.42
2019-04-27T19:36:48.683Z,2.67
2019-04-27T19:37:51.390Z,2.52
2019-04-27T19:38:55.239Z,2.33
2019-04-27T19:39:58.643Z,2.98
2019-04-27T19:41:01.956Z,2.27
2019-04-27T19:42:05.272Z,3.08
2019-04-27T19:43:10.291Z,2.70
2019-04-27T19:44:13.999Z,2.60
2019-04-27T19:45:20.818Z,2.62
2019-04-27T19:46:22.743Z,2.40
2019-04-27T19:47:26.351Z,2.55
2019-04-27T19:48:29.914Z,2.50
2019-04-27T19:49:33.224Z,2.77
2019-04-27T19:50:36.597Z,2.47
2019-04-27T19:51:39.900Z,2.67
2019-04-27T19:52:43.810Z,2.45
2019-04-27T19:53:47.462Z,2.75
2019-04-27T19:54:51.083Z,2.60
2019-04-27T19:56:03.909Z,3.20
2019-04-27T19:57:09.047Z,3.77
2019-04-27T19:58:13.455Z,3.40
2019-04-27T19:59:30.687Z,3.83
2019-04-27T20:00:50.574Z,3.40
2019-04-27T20:01:54.664Z,3.52
2019-04-27T20:02:59.968Z,3.40
2019-04-27T20:04:11.629Z,3.72
2019-04-27T20:05:16.949Z,3.55
2019-04-27T20:06:19.782Z,3.35
2019-04-27T20:07:25.619Z,3.80
2019-04-27T20:08:30.865Z,3.33
2019-04-27T20:09:40.429Z,4.00
2019-04-27T20:10:43.971Z,3.33
2019-04-27T20:11:47.370Z,3.83
2019-04-27T20:12:51.058Z,3.22
2019-04-27T20:13:54.971Z,2.80
2019-04-27T20:14:58.436Z,2.77
2019-04-27T20:16:01.455Z,3.17
2019-04-27T20:17:05.319Z,3.17
2019-04-27T20:18:10.816Z,3.00
2019-04-27T20:19:14.800Z,3.10
2019-04-27T20:20:18.081Z,3.02
2019-04-27T20:21:21.258Z,3.30
2019-04-27T20:22:24.846Z,2.98
2019-04-27T20:23:28.145Z,2.80
2019-04-27T20:24:33.554Z,2.98
2019-04-27T20:25:37.010Z,2.77
2019-04-27T20:26:40.631Z,3.35
2019-04-27T20:27:48.957Z,3.27
2019-04-27T20:28:51.276Z,2.92
2019-04-27T20:29:54.441Z,2.85
2019-04-27T20:30:58.275Z,2.90
2019-04-27T20:32:02.164Z,3.12
2019-04-27T20:33:05.772Z,3.33
2019-04-27T20:34:09.400Z,2.87
2019-04-27T20:35:12.733Z,3.37
2019-04-27T20:36:16.318Z,3.58
2019-04-27T20:37:21.017Z,3.55
2019-04-27T20:38:24.233Z,3.05
2019-04-27T20:39:28.111Z,3.65
2019-04-27T20:40:31.636Z,3.58
2019-04-27T20:41:35.284Z,3.60
2019-04-27T20:42:38.859Z,3.40
2019-04-27T20:43:42.760Z,3.85
2019-04-27T20:44:46.092Z,3.37
2019-04-27T20:45:51.482Z,3.65
2019-04-27T20:46:54.947Z,2.77
2019-04-27T20:47:58.274Z,3.92
2019-04-27T20:49:03.490Z,2.85
2019-04-27T20:50:07.328Z,3.90
2019-04-27T20:51:11.365Z,3.27
2019-04-27T20:52:21.552Z,3.22
2019-04-27T20:53:28.218Z,2.75
2019-04-27T20:54:32.682Z,2.67
2019-04-27T20:55:36.122Z,3.60
2019-04-27T20:56:39.703Z,3.47
2019-04-27T20:57:43.294Z,3.20
2019-04-27T20:58:47.127Z,3.50
2019-04-27T20:59:50.531Z,3.60
2019-04-27T21:00:55.511Z,3.37
2019-04-27T21:02:01.259Z,3.12
2019-04-27T21:03:21.738Z,4.00
2019-04-27T21:04:27.675Z,3.45
2019-04-27T21:05:51.131Z,3.45
2019-04-27T21:06:57.857Z,3.12
2019-04-27T21:08:02.790Z,2.90
2019-04-27T21:09:12.795Z,3.33
2019-04-27T21:10:16.381Z,3.80
2019-04-27T21:11:20.895Z,3.77
2019-04-27T21:12:24.023Z,4.10
2019-04-27T21:13:27.300Z,3.30
2019-04-27T21:14:31.683Z,4.65
2019-04-27T21:15:34.875Z,3.80
2019-04-27T21:16:38.447Z,4.03
2019-04-27T21:17:42.547Z,3.70
2019-04-27T21:18:46.272Z,3.90
2019-04-27T21:19:51.417Z,3.27
2019-04-27T21:20:54.660Z,3.45
2019-04-27T21:21:58.245Z,4.78
2019-04-27T21:23:01.968Z,3.70
2019-04-27T21:24:05.597Z,3.35
2019-04-27T21:25:09.153Z,3.98
2019-04-27T21:26:12.451Z,3.60
2019-04-27T21:27:15.832Z,3.95
2019-04-27T21:28:19.208Z,3.47
2019-04-27T21:29:22.594Z,3.47
2019-04-27T21:30:25.883Z,3.65
2019-04-27T21:31:31.518Z,3.33
2019-04-27T21:32:34.487Z,3.60
2019-04-27T21:33:38.187Z,3.30
2019-04-27T21:34:41.825Z,3.98
2019-04-27T21:35:47.816Z,4.20
2019-04-27T21:36:51.690Z,3.85
2019-04-27T21:37:55.311Z,2.80
2019-04-27T21:38:58.692Z,3.77
2019-04-27T21:40:18.461Z,3.65
2019-04-27T21:41:22.698Z,3.35
2019-04-27T21:42:25.909Z,4.05
2019-04-27T21:43:29.217Z,3.22
2019-04-27T21:44:32.803Z,3.77
2019-04-27T21:45:36.095Z,4.42
2019-04-27T21:46:41.628Z,4.40
2019-04-27T21:47:45.228Z,4.00
2019-04-27T21:48:48.828Z,4.03
2019-04-27T21:49:52.147Z,3.37
2019-04-27T21:50:55.182Z,3.27
2019-04-27T21:52:03.794Z,2.80
2019-04-27T21:53:35.527Z,3.77
2019-04-27T21:54:38.842Z,3.70
2019-04-27T21:55:42.291Z,4.35
2019-04-27T21:56:45.910Z,3.87
2019-04-27T21:57:51.118Z,3.02
2019-04-27T21:58:54.241Z,3.50
2019-04-27T21:59:57.523Z,3.15
2019-04-27T22:01:06.619Z,3.55
2019-04-27T22:02:11.982Z,3.08
2019-04-27T22:03:15.701Z,3.40
2019-04-27T22:04:19.250Z,3.10
2019-04-27T22:05:22.909Z,3.65
2019-04-27T22:06:26.461Z,3.47
2019-04-27T22:07:31.618Z,3.52
2019-04-27T22:08:35.050Z,3.08
2019-04-27T22:09:38.368Z,4.08
2019-04-27T22:10:41.685Z,3.20
2019-04-27T22:11:45.262Z,3.22
2019-04-27T22:12:48.548Z,3.12
2019-04-27T22:13:51.927Z,3.35
2019-04-27T22:14:55.902Z,2.85
2019-04-27T22:15:59.462Z,4.15
2019-04-27T22:17:02.766Z,2.87
2019-04-27T22:18:06.651Z,3.22
2019-04-27T22:19:11.978Z,3.45
2019-04-27T22:20:15.241Z,2.72
2019-04-27T22:21:18.525Z,2.90
2019-04-27T22:22:28.464Z,3.02
2019-04-27T22:23:41.866Z,3.55
2019-04-27T22:24:45.466Z,2.90
2019-04-27T22:25:49.319Z,3.17
2019-04-27T22:26:52.956Z,3.60
2019-04-27T22:27:55.995Z,2.67
2019-04-27T22:29:01.479Z,3.45
2019-04-27T22:30:05.345Z,3.98
2019-04-27T22:31:12.347Z,3.35
2019-04-27T22:32:14.090Z,3.08
2019-04-27T22:33:17.203Z,3.60
2019-04-27T22:34:21.267Z,3.15
2019-04-27T22:35:24.935Z,3.83
2019-04-27T22:36:28.507Z,2.65
2019-04-27T22:37:31.794Z,3.35
2019-04-27T22:38:35.341Z,3.20
2019-04-27T22:39:48.198Z,3.27
2019-04-27T22:41:03.875Z,3.40
2019-04-27T22:42:24.831Z,3.10
2019-04-27T22:43:45.749Z,2.98
2019-04-27T22:44:52.897Z,4.50
2019-04-27T22:45:56.692Z,3.27
2019-04-27T22:47:00.302Z,2.65